Terminal Aerodrome Forecast
Issued by NWS Sioux Falls, SD

Home | Current Version | Previous Version | Text Only | Print | Product List | Glossary Off
Versions: 1 2 3 4 5 6 7 8 9 10 11 12 13 14 15 16 17 18

000
FTUS43 KFSD 300520
TAFFSD
TAF
KFSD 300520Z 3006/3106 18007KT P6SM SCT008
     FM300900 18009KT 4SM BR SCT008
      TEMPO 3011/3013 2SM BR
     FM301600 18013KT P6SM SKC
     FM310100 18010KT P6SM SKC=

USA.gov is the U.S. government's official web portal to all federal, state and local government web resources and services.